METAR AND TAF INFORMATION
METAR FOR TRPG
ADDS - METARS form results

(2002 UTC 06 July 2020)
Data provider http://aviationweather.gov/metar/data/
 
Forecast for: TRPG (JOHN OSBORNE APT, MS)
Text: TAF TRPG 061700Z 0618/0718 09014KT 9999 SCT019
Forecast period: 1800 UTC 06 July 2020 to 1800 UTC 07 July 2020
Forecast type: FROM: standard forecast or significant change
Winds: from the E (90 degrees) at 16 MPH (14 knots; 7.2 m/s)
Visibility: 6 or more miles 10+ km)
Ceiling: at least 12,000 feet AGL
Clouds: scattered clouds at 1900 feet AGL
Weather: no significant weather forecast for this period
Text: PROB30
Forecast period: 1800 UTC 06 July 2020 to 0000 UTC 07 July 2020
Forecast type: TEMPORARY: The following changes expected for less than half the time period
Visibility: missing
Ceiling: unknown
Clouds: missing
Weather: SHRA  (rain showers)

 AIRPORT MAP

 RUNWAY INFORMATION
Runway 10 Runway length 1968 ft Runway width 0 ft
Runway elevation 0 ft Runway displaced threshold 0 ft Runway heading 0
Runway 28 Runway length 1968 ft Runway width 0 ft
Runway elevation 0 ft Runway displaced threshold 0 ft Runway heading 0

 AIRPORT FREQUENCIES

 AIRPORT NEAR NAVIGATION AIDS
Type NDB Name Geralds Frequency 215 KHZ



Powered by Virtual Airlines Manager [v2.6.2]